sensor_id;sensor_type;location;lat;lon;timestamp;P1;durP1;ratioP1;P2;durP2;ratioP2
73675;SDS011;61975;48.660;10.164;2022-10-16T00:00:35;9.48;;;3.20;;
73675;SDS011;61975;48.660;10.164;2022-10-16T00:03:02;4.60;;;2.97;;
73675;SDS011;61975;48.660;10.164;2022-10-16T00:05:28;4.82;;;2.88;;
73675;SDS011;61975;48.660;10.164;2022-10-16T00:07:54;5.43;;;2.70;;
73675;SDS011;61975;48.660;10.164;2022-10-16T00:10:19;7.13;;;3.60;;
73675;SDS011;61975;48.660;10.164;2022-10-16T00:12:45;6.83;;;3.67;;
73675;SDS011;61975;48.660;10.164;2022-10-16T00:15:10;9.23;;;3.83;;
73675;SDS011;61975;48.660;10.164;2022-10-16T00:17:36;6.95;;;3.90;;
73675;SDS011;61975;48.660;10.164;2022-10-16T00:20:02;6.73;;;3.33;;
73675;SDS011;61975;48.660;10.164;2022-10-16T00:22:27;6.07;;;3.55;;
73675;SDS011;61975;48.660;10.164;2022-10-16T00:24:53;9.07;;;3.80;;
73675;SDS011;61975;48.660;10.164;2022-10-16T00:27:18;6.87;;;3.80;;
73675;SDS011;61975;48.660;10.164;2022-10-16T00:29:43;7.90;;;3.60;;
73675;SDS011;61975;48.660;10.164;2022-10-16T00:32:09;6.47;;;3.80;;
73675;SDS011;61975;48.660;10.164;2022-10-16T00:34:34;5.27;;;3.30;;
73675;SDS011;61975;48.660;10.164;2022-10-16T00:37:00;5.88;;;3.55;;
73675;SDS011;61975;48.660;10.164;2022-10-16T00:39:25;7.67;;;3.70;;
73675;SDS011;61975;48.660;10.164;2022-10-16T00:41:51;6.17;;;3.40;;
73675;SDS011;61975;48.660;10.164;2022-10-16T00:47:34;6.22;;;3.25;;
73675;SDS011;61975;48.660;10.164;2022-10-16T00:52:46;5.93;;;3.63;;
73675;SDS011;61975;48.660;10.164;2022-10-16T00:55:14;5.43;;;3.25;;
73675;SDS011;61975;48.660;10.164;2022-10-16T00:57:41;8.23;;;3.60;;
73675;SDS011;61975;48.660;10.164;2022-10-16T01:00:09;6.20;;;3.38;;
73675;SDS011;61975;48.660;10.164;2022-10-16T01:02:36;8.68;;;3.63;;
73675;SDS011;61975;48.660;10.164;2022-10-16T01:05:02;7.60;;;3.60;;
73675;SDS011;61975;48.660;10.164;2022-10-16T01:12:39;8.82;;;3.80;;
73675;SDS011;61975;48.660;10.164;2022-10-16T01:18:46;6.70;;;3.67;;
73675;SDS011;61975;48.660;10.164;2022-10-16T01:21:24;7.72;;;3.80;;
73675;SDS011;61975;48.660;10.164;2022-10-16T01:29:25;7.07;;;3.67;;
73675;SDS011;61975;48.660;10.164;2022-10-16T01:32:42;15.55;;;4.07;;
73675;SDS011;61975;48.660;10.164;2022-10-16T01:37:51;8.35;;;3.95;;
73675;SDS011;61975;48.660;10.164;2022-10-16T01:40:24;10.35;;;4.00;;
73675;SDS011;61975;48.660;10.164;2022-10-16T01:42:53;6.13;;;3.60;;
73675;SDS011;61975;48.660;10.164;2022-10-16T01:45:24;7.72;;;3.88;;
73675;SDS011;61975;48.660;10.164;2022-10-16T01:47:49;8.30;;;4.00;;
73675;SDS011;61975;48.660;10.164;2022-10-16T01:50:18;6.75;;;3.78;;
73675;SDS011;61975;48.660;10.164;2022-10-16T01:52:46;8.57;;;3.50;;
73675;SDS011;61975;48.660;10.164;2022-10-16T01:55:17;7.38;;;4.00;;
73675;SDS011;61975;48.660;10.164;2022-10-16T01:57:47;7.00;;;3.65;;
73675;SDS011;61975;48.660;10.164;2022-10-16T02:00:16;6.17;;;3.60;;
73675;SDS011;61975;48.660;10.164;2022-10-16T02:02:44;10.52;;;4.15;;
73675;SDS011;61975;48.660;10.164;2022-10-16T02:05:16;6.97;;;3.50;;
73675;SDS011;61975;48.660;10.164;2022-10-16T02:07:47;5.90;;;3.67;;
73675;SDS011;61975;48.660;10.164;2022-10-16T02:10:14;7.35;;;3.50;;
73675;SDS011;61975;48.660;10.164;2022-10-16T02:12:40;7.03;;;3.57;;
73675;SDS011;61975;48.660;10.164;2022-10-16T02:15:10;7.85;;;3.75;;
73675;SDS011;61975;48.660;10.164;2022-10-16T02:17:36;11.67;;;4.70;;
73675;SDS011;61975;48.660;10.164;2022-10-16T02:20:01;8.83;;;3.77;;
73675;SDS011;61975;48.660;10.164;2022-10-16T02:22:45;5.97;;;3.67;;
73675;SDS011;61975;48.660;10.164;2022-10-16T02:25:17;5.85;;;3.40;;
73675;SDS011;61975;48.660;10.164;2022-10-16T02:32:52;7.13;;;3.60;;
73675;SDS011;61975;48.660;10.164;2022-10-16T02:35:20;6.50;;;3.83;;
73675;SDS011;61975;48.660;10.164;2022-10-16T02:37:48;9.07;;;3.80;;
73675;SDS011;61975;48.660;10.164;2022-10-16T02:40:14;6.03;;;3.88;;
73675;SDS011;61975;48.660;10.164;2022-10-16T02:42:40;6.70;;;4.22;;
73675;SDS011;61975;48.660;10.164;2022-10-16T02:45:06;6.93;;;3.80;;
73675;SDS011;61975;48.660;10.164;2022-10-16T02:47:33;7.20;;;3.72;;
73675;SDS011;61975;48.660;10.164;2022-10-16T02:49:59;6.63;;;3.70;;
73675;SDS011;61975;48.660;10.164;2022-10-16T02:52:24;5.50;;;3.55;;
73675;SDS011;61975;48.660;10.164;2022-10-16T02:54:50;7.07;;;3.90;;
73675;SDS011;61975;48.660;10.164;2022-10-16T02:57:16;6.00;;;4.15;;
73675;SDS011;61975;48.660;10.164;2022-10-16T02:59:42;8.88;;;4.03;;
73675;SDS011;61975;48.660;10.164;2022-10-16T03:02:07;6.83;;;3.90;;
73675;SDS011;61975;48.660;10.164;2022-10-16T03:04:33;7.50;;;4.07;;
73675;SDS011;61975;48.660;10.164;2022-10-16T03:06:59;8.97;;;4.10;;
73675;SDS011;61975;48.660;10.164;2022-10-16T03:09:24;6.77;;;4.10;;
73675;SDS011;61975;48.660;10.164;2022-10-16T03:11:49;5.80;;;4.10;;
73675;SDS011;61975;48.660;10.164;2022-10-16T03:14:15;9.23;;;4.23;;
73675;SDS011;61975;48.660;10.164;2022-10-16T03:16:40;8.20;;;4.20;;
73675;SDS011;61975;48.660;10.164;2022-10-16T03:19:06;8.15;;;4.10;;
73675;SDS011;61975;48.660;10.164;2022-10-16T03:21:31;8.47;;;4.20;;
73675;SDS011;61975;48.660;10.164;2022-10-16T03:23:56;7.30;;;4.10;;
73675;SDS011;61975;48.660;10.164;2022-10-16T03:26:22;7.40;;;4.17;;
73675;SDS011;61975;48.660;10.164;2022-10-16T03:28:47;6.23;;;3.70;;
73675;SDS011;61975;48.660;10.164;2022-10-16T03:31:12;6.93;;;3.72;;
73675;SDS011;61975;48.660;10.164;2022-10-16T03:33:38;7.70;;;3.80;;
73675;SDS011;61975;48.660;10.164;2022-10-16T03:36:03;6.83;;;4.27;;
73675;SDS011;61975;48.660;10.164;2022-10-16T03:38:29;8.97;;;4.37;;
73675;SDS011;61975;48.660;10.164;2022-10-16T03:40:54;8.20;;;4.22;;
73675;SDS011;61975;48.660;10.164;2022-10-16T03:43:20;8.53;;;4.23;;
73675;SDS011;61975;48.660;10.164;2022-10-16T03:45:45;5.83;;;4.07;;
73675;SDS011;61975;48.660;10.164;2022-10-16T03:48:10;9.27;;;4.43;;
73675;SDS011;61975;48.660;10.164;2022-10-16T03:50:36;7.27;;;4.30;;
73675;SDS011;61975;48.660;10.164;2022-10-16T03:53:02;7.85;;;4.10;;
73675;SDS011;61975;48.660;10.164;2022-10-16T03:55:28;10.13;;;4.30;;
73675;SDS011;61975;48.660;10.164;2022-10-16T03:57:53;6.97;;;4.00;;
73675;SDS011;61975;48.660;10.164;2022-10-16T04:00:18;8.70;;;4.17;;
73675;SDS011;61975;48.660;10.164;2022-10-16T04:02:44;11.83;;;4.30;;
73675;SDS011;61975;48.660;10.164;2022-10-16T04:05:09;7.60;;;4.30;;
73675;SDS011;61975;48.660;10.164;2022-10-16T04:07:35;6.47;;;3.80;;
73675;SDS011;61975;48.660;10.164;2022-10-16T04:10:00;7.70;;;4.20;;
73675;SDS011;61975;48.660;10.164;2022-10-16T04:12:26;8.60;;;4.10;;
73675;SDS011;61975;48.660;10.164;2022-10-16T04:14:51;7.05;;;4.00;;
73675;SDS011;61975;48.660;10.164;2022-10-16T04:17:17;9.73;;;4.50;;
73675;SDS011;61975;48.660;10.164;2022-10-16T04:19:42;7.23;;;4.20;;
73675;SDS011;61975;48.660;10.164;2022-10-16T04:22:08;9.25;;;4.70;;
73675;SDS011;61975;48.660;10.164;2022-10-16T04:24:33;6.30;;;4.27;;
73675;SDS011;61975;48.660;10.164;2022-10-16T04:26:58;7.33;;;4.37;;
73675;SDS011;61975;48.660;10.164;2022-10-16T04:29:24;9.43;;;4.30;;
73675;SDS011;61975;48.660;10.164;2022-10-16T04:31:49;7.70;;;4.55;;
73675;SDS011;61975;48.660;10.164;2022-10-16T04:34:15;6.35;;;3.95;;
73675;SDS011;61975;48.660;10.164;2022-10-16T04:36:40;7.63;;;4.30;;
73675;SDS011;61975;48.660;10.164;2022-10-16T04:39:05;7.23;;;4.20;;
73675;SDS011;61975;48.660;10.164;2022-10-16T04:41:31;7.60;;;4.00;;
73675;SDS011;61975;48.660;10.164;2022-10-16T04:43:56;6.97;;;4.10;;
73675;SDS011;61975;48.660;10.164;2022-10-16T04:46:22;7.60;;;3.83;;
73675;SDS011;61975;48.660;10.164;2022-10-16T04:48:47;6.97;;;4.03;;
73675;SDS011;61975;48.660;10.164;2022-10-16T04:51:12;7.07;;;3.80;;
73675;SDS011;61975;48.660;10.164;2022-10-16T04:53:38;5.40;;;3.60;;
73675;SDS011;61975;48.660;10.164;2022-10-16T04:56:03;9.63;;;4.07;;
73675;SDS011;61975;48.660;10.164;2022-10-16T04:58:29;8.00;;;4.20;;
73675;SDS011;61975;48.660;10.164;2022-10-16T05:00:54;7.95;;;3.70;;
73675;SDS011;61975;48.660;10.164;2022-10-16T05:03:20;6.57;;;3.80;;
73675;SDS011;61975;48.660;10.164;2022-10-16T05:05:45;9.03;;;4.23;;
73675;SDS011;61975;48.660;10.164;2022-10-16T05:08:12;8.05;;;3.97;;
73675;SDS011;61975;48.660;10.164;2022-10-16T05:10:39;8.55;;;4.18;;
73675;SDS011;61975;48.660;10.164;2022-10-16T05:13:06;7.83;;;4.10;;
73675;SDS011;61975;48.660;10.164;2022-10-16T05:15:31;7.43;;;3.72;;
73675;SDS011;61975;48.660;10.164;2022-10-16T05:17:57;5.90;;;3.77;;
73675;SDS011;61975;48.660;10.164;2022-10-16T05:20:22;7.43;;;4.40;;
73675;SDS011;61975;48.660;10.164;2022-10-16T05:22:48;7.13;;;3.90;;
73675;SDS011;61975;48.660;10.164;2022-10-16T05:25:13;6.83;;;3.70;;
73675;SDS011;61975;48.660;10.164;2022-10-16T05:27:39;6.17;;;3.80;;
73675;SDS011;61975;48.660;10.164;2022-10-16T05:30:04;5.70;;;4.00;;
73675;SDS011;61975;48.660;10.164;2022-10-16T05:32:30;6.97;;;4.05;;
73675;SDS011;61975;48.660;10.164;2022-10-16T05:34:56;7.10;;;4.20;;
73675;SDS011;61975;48.660;10.164;2022-10-16T05:37:21;7.80;;;4.40;;
73675;SDS011;61975;48.660;10.164;2022-10-16T05:39:46;7.10;;;4.32;;
73675;SDS011;61975;48.660;10.164;2022-10-16T05:42:12;7.70;;;4.47;;
73675;SDS011;61975;48.660;10.164;2022-10-16T05:44:37;8.87;;;5.33;;
73675;SDS011;61975;48.660;10.164;2022-10-16T05:47:03;7.93;;;4.67;;
73675;SDS011;61975;48.660;10.164;2022-10-16T05:49:28;6.53;;;4.50;;
73675;SDS011;61975;48.660;10.164;2022-10-16T05:51:54;7.82;;;4.45;;
73675;SDS011;61975;48.660;10.164;2022-10-16T05:54:19;9.93;;;4.57;;
73675;SDS011;61975;48.660;10.164;2022-10-16T05:56:44;7.80;;;4.33;;
73675;SDS011;61975;48.660;10.164;2022-10-16T05:59:10;8.17;;;4.40;;
73675;SDS011;61975;48.660;10.164;2022-10-16T06:01:35;8.43;;;4.00;;
73675;SDS011;61975;48.660;10.164;2022-10-16T06:04:01;9.73;;;4.77;;
73675;SDS011;61975;48.660;10.164;2022-10-16T06:06:27;10.27;;;5.40;;
73675;SDS011;61975;48.660;10.164;2022-10-16T06:08:55;9.80;;;5.83;;
73675;SDS011;61975;48.660;10.164;2022-10-16T06:11:22;11.30;;;7.25;;
73675;SDS011;61975;48.660;10.164;2022-10-16T06:13:49;10.90;;;6.45;;
73675;SDS011;61975;48.660;10.164;2022-10-16T06:16:21;10.80;;;6.70;;
73675;SDS011;61975;48.660;10.164;2022-10-16T06:18:48;14.57;;;8.88;;
73675;SDS011;61975;48.660;10.164;2022-10-16T06:21:16;11.97;;;6.03;;
73675;SDS011;61975;48.660;10.164;2022-10-16T06:23:44;16.60;;;9.38;;
73675;SDS011;61975;48.660;10.164;2022-10-16T06:26:11;28.98;;;17.83;;
73675;SDS011;61975;48.660;10.164;2022-10-16T06:28:38;23.55;;;13.52;;
73675;SDS011;61975;48.660;10.164;2022-10-16T06:31:04;16.17;;;9.57;;
73675;SDS011;61975;48.660;10.164;2022-10-16T06:33:31;13.52;;;7.00;;
73675;SDS011;61975;48.660;10.164;2022-10-16T06:36:06;9.75;;;5.57;;
73675;SDS011;61975;48.660;10.164;2022-10-16T06:38:33;8.82;;;5.47;;
73675;SDS011;61975;48.660;10.164;2022-10-16T06:41:01;8.10;;;4.95;;
73675;SDS011;61975;48.660;10.164;2022-10-16T06:43:30;6.88;;;4.70;;
73675;SDS011;61975;48.660;10.164;2022-10-16T06:45:57;7.35;;;4.85;;
73675;SDS011;61975;48.660;10.164;2022-10-16T06:48:23;7.45;;;4.80;;
73675;SDS011;61975;48.660;10.164;2022-10-16T06:51:00;7.72;;;4.70;;
73675;SDS011;61975;48.660;10.164;2022-10-16T06:53:26;10.57;;;5.05;;
73675;SDS011;61975;48.660;10.164;2022-10-16T06:55:54;8.27;;;5.22;;
73675;SDS011;61975;48.660;10.164;2022-10-16T06:58:20;7.28;;;4.68;;
73675;SDS011;61975;48.660;10.164;2022-10-16T07:00:46;7.67;;;4.63;;
73675;SDS011;61975;48.660;10.164;2022-10-16T07:03:11;8.83;;;5.07;;
73675;SDS011;61975;48.660;10.164;2022-10-16T07:05:38;8.70;;;5.03;;
73675;SDS011;61975;48.660;10.164;2022-10-16T07:08:04;8.52;;;5.20;;
73675;SDS011;61975;48.660;10.164;2022-10-16T07:10:30;8.32;;;5.40;;
73675;SDS011;61975;48.660;10.164;2022-10-16T07:12:56;9.70;;;4.93;;
73675;SDS011;61975;48.660;10.164;2022-10-16T07:15:21;9.37;;;5.10;;
73675;SDS011;61975;48.660;10.164;2022-10-16T07:17:47;9.93;;;4.70;;
73675;SDS011;61975;48.660;10.164;2022-10-16T07:20:12;9.53;;;5.07;;
73675;SDS011;61975;48.660;10.164;2022-10-16T07:22:38;6.82;;;4.57;;
73675;SDS011;61975;48.660;10.164;2022-10-16T07:25:03;6.35;;;4.40;;
73675;SDS011;61975;48.660;10.164;2022-10-16T07:27:29;9.03;;;4.07;;
73675;SDS011;61975;48.660;10.164;2022-10-16T07:29:54;7.40;;;4.00;;
73675;SDS011;61975;48.660;10.164;2022-10-16T07:32:19;6.97;;;4.57;;
73675;SDS011;61975;48.660;10.164;2022-10-16T07:34:45;7.93;;;4.70;;
73675;SDS011;61975;48.660;10.164;2022-10-16T07:37:10;7.20;;;4.23;;
73675;SDS011;61975;48.660;10.164;2022-10-16T07:39:36;8.13;;;4.33;;
73675;SDS011;61975;48.660;10.164;2022-10-16T07:42:01;12.48;;;4.45;;
73675;SDS011;61975;48.660;10.164;2022-10-16T07:44:27;7.13;;;4.30;;
73675;SDS011;61975;48.660;10.164;2022-10-16T07:46:52;8.13;;;4.70;;
73675;SDS011;61975;48.660;10.164;2022-10-16T07:49:18;6.67;;;4.50;;
73675;SDS011;61975;48.660;10.164;2022-10-16T07:51:43;6.55;;;4.20;;
73675;SDS011;61975;48.660;10.164;2022-10-16T07:54:09;7.33;;;4.50;;
73675;SDS011;61975;48.660;10.164;2022-10-16T07:56:35;8.70;;;4.72;;
73675;SDS011;61975;48.660;10.164;2022-10-16T07:59:00;8.87;;;4.63;;
73675;SDS011;61975;48.660;10.164;2022-10-16T08:01:26;9.07;;;4.73;;
73675;SDS011;61975;48.660;10.164;2022-10-16T08:03:51;8.20;;;4.60;;
73675;SDS011;61975;48.660;10.164;2022-10-16T08:06:18;7.53;;;4.40;;
73675;SDS011;61975;48.660;10.164;2022-10-16T08:08:45;8.50;;;4.68;;
73675;SDS011;61975;48.660;10.164;2022-10-16T08:11:11;7.43;;;4.67;;
73675;SDS011;61975;48.660;10.164;2022-10-16T08:13:36;8.50;;;4.68;;
73675;SDS011;61975;48.660;10.164;2022-10-16T08:16:02;8.07;;;4.80;;
73675;SDS011;61975;48.660;10.164;2022-10-16T08:18:32;7.75;;;4.63;;
73675;SDS011;61975;48.660;10.164;2022-10-16T08:21:02;7.22;;;4.65;;
73675;SDS011;61975;48.660;10.164;2022-10-16T08:23:29;7.93;;;4.63;;
73675;SDS011;61975;48.660;10.164;2022-10-16T08:25:55;6.68;;;4.47;;
73675;SDS011;61975;48.660;10.164;2022-10-16T08:28:26;7.00;;;4.20;;
73675;SDS011;61975;48.660;10.164;2022-10-16T08:30:51;9.63;;;4.27;;
73675;SDS011;61975;48.660;10.164;2022-10-16T08:33:17;6.30;;;4.30;;
73675;SDS011;61975;48.660;10.164;2022-10-16T08:35:42;11.10;;;4.30;;
73675;SDS011;61975;48.660;10.164;2022-10-16T08:38:08;7.43;;;4.37;;
73675;SDS011;61975;48.660;10.164;2022-10-16T08:40:35;7.30;;;4.45;;
73675;SDS011;61975;48.660;10.164;2022-10-16T08:48:27;7.70;;;4.18;;
73675;SDS011;61975;48.660;10.164;2022-10-16T08:51:01;6.20;;;3.80;;
73675;SDS011;61975;48.660;10.164;2022-10-16T08:53:28;7.05;;;3.90;;
73675;SDS011;61975;48.660;10.164;2022-10-16T08:55:58;8.40;;;4.00;;
73675;SDS011;61975;48.660;10.164;2022-10-16T08:58:28;5.70;;;3.57;;
73675;SDS011;61975;48.660;10.164;2022-10-16T09:00:56;6.55;;;3.78;;
73675;SDS011;61975;48.660;10.164;2022-10-16T09:06:31;6.88;;;3.70;;
73675;SDS011;61975;48.660;10.164;2022-10-16T09:25:44;7.17;;;3.57;;
73675;SDS011;61975;48.660;10.164;2022-10-16T09:28:12;6.22;;;3.70;;
73675;SDS011;61975;48.660;10.164;2022-10-16T09:30:38;7.30;;;3.60;;
73675;SDS011;61975;48.660;10.164;2022-10-16T09:33:04;6.72;;;3.35;;
73675;SDS011;61975;48.660;10.164;2022-10-16T09:38:00;6.88;;;3.35;;
73675;SDS011;61975;48.660;10.164;2022-10-16T09:40:26;7.87;;;2.73;;
73675;SDS011;61975;48.660;10.164;2022-10-16T09:43:00;8.40;;;3.03;;
73675;SDS011;61975;48.660;10.164;2022-10-16T09:45:53;9.85;;;3.42;;
73675;SDS011;61975;48.660;10.164;2022-10-16T09:48:21;8.10;;;3.20;;
73675;SDS011;61975;48.660;10.164;2022-10-16T09:50:57;6.57;;;3.33;;
73675;SDS011;61975;48.660;10.164;2022-10-16T09:53:24;7.20;;;3.50;;
73675;SDS011;61975;48.660;10.164;2022-10-16T09:56:02;6.40;;;3.10;;
73675;SDS011;61975;48.660;10.164;2022-10-16T09:58:30;6.03;;;3.08;;
73675;SDS011;61975;48.660;10.164;2022-10-16T10:00:57;5.03;;;2.80;;
73675;SDS011;61975;48.660;10.164;2022-10-16T10:03:39;7.90;;;2.97;;
73675;SDS011;61975;48.660;10.164;2022-10-16T10:06:15;5.85;;;3.35;;
73675;SDS011;61975;48.660;10.164;2022-10-16T10:11:35;7.27;;;3.00;;
73675;SDS011;61975;48.660;10.164;2022-10-16T10:16:49;6.45;;;3.33;;
73675;SDS011;61975;48.660;10.164;2022-10-16T10:19:16;8.73;;;2.80;;
73675;SDS011;61975;48.660;10.164;2022-10-16T10:21:44;5.82;;;3.03;;
73675;SDS011;61975;48.660;10.164;2022-10-16T10:24:13;7.67;;;3.10;;
73675;SDS011;61975;48.660;10.164;2022-10-16T10:35:50;6.72;;;2.60;;
73675;SDS011;61975;48.660;10.164;2022-10-16T10:46:32;5.10;;;2.40;;
73675;SDS011;61975;48.660;10.164;2022-10-16T10:51:48;5.87;;;2.53;;
73675;SDS011;61975;48.660;10.164;2022-10-16T10:54:58;5.72;;;2.50;;
73675;SDS011;61975;48.660;10.164;2022-10-16T10:57:33;8.07;;;5.10;;
73675;SDS011;61975;48.660;10.164;2022-10-16T11:03:24;4.70;;;2.40;;
73675;SDS011;61975;48.660;10.164;2022-10-16T11:06:15;5.30;;;2.40;;
73675;SDS011;61975;48.660;10.164;2022-10-16T11:11:41;5.95;;;2.42;;
73675;SDS011;61975;48.660;10.164;2022-10-16T11:14:33;6.35;;;2.60;;
73675;SDS011;61975;48.660;10.164;2022-10-16T11:20:02;5.13;;;2.47;;
73675;SDS011;61975;48.660;10.164;2022-10-16T11:22:46;5.75;;;3.22;;
73675;SDS011;61975;48.660;10.164;2022-10-16T11:25:29;4.55;;;2.15;;
73675;SDS011;61975;48.660;10.164;2022-10-16T11:33:25;5.20;;;2.30;;
73675;SDS011;61975;48.660;10.164;2022-10-16T11:38:55;6.50;;;2.65;;
73675;SDS011;61975;48.660;10.164;2022-10-16T11:41:29;4.22;;;2.10;;
73675;SDS011;61975;48.660;10.164;2022-10-16T11:46:32;4.57;;;2.23;;
73675;SDS011;61975;48.660;10.164;2022-10-16T11:49:03;5.07;;;1.80;;
73675;SDS011;61975;48.660;10.164;2022-10-16T11:51:39;5.22;;;2.00;;
73675;SDS011;61975;48.660;10.164;2022-10-16T11:54:20;3.95;;;2.00;;
73675;SDS011;61975;48.660;10.164;2022-10-16T11:56:54;4.35;;;1.88;;
73675;SDS011;61975;48.660;10.164;2022-10-16T11:59:36;4.40;;;1.87;;
73675;SDS011;61975;48.660;10.164;2022-10-16T12:05:01;4.70;;;2.15;;
73675;SDS011;61975;48.660;10.164;2022-10-16T12:07:32;3.00;;;1.70;;
73675;SDS011;61975;48.660;10.164;2022-10-16T12:10:18;4.80;;;2.00;;
73675;SDS011;61975;48.660;10.164;2022-10-16T12:12:46;4.80;;;2.40;;
73675;SDS011;61975;48.660;10.164;2022-10-16T12:15:27;4.22;;;2.40;;
73675;SDS011;61975;48.660;10.164;2022-10-16T12:17:55;3.95;;;1.98;;
73675;SDS011;61975;48.660;10.164;2022-10-16T12:20:23;3.70;;;1.80;;
73675;SDS011;61975;48.660;10.164;2022-10-16T12:22:56;5.35;;;1.77;;
73675;SDS011;61975;48.660;10.164;2022-10-16T12:25:25;4.95;;;2.67;;
73675;SDS011;61975;48.660;10.164;2022-10-16T12:28:03;4.63;;;2.10;;
73675;SDS011;61975;48.660;10.164;2022-10-16T12:30:32;3.63;;;2.22;;
73675;SDS011;61975;48.660;10.164;2022-10-16T12:33:00;4.40;;;2.30;;
73675;SDS011;61975;48.660;10.164;2022-10-16T12:35:30;4.85;;;2.33;;
73675;SDS011;61975;48.660;10.164;2022-10-16T12:38:14;4.13;;;2.03;;
73675;SDS011;61975;48.660;10.164;2022-10-16T12:40:43;3.72;;;2.00;;
73675;SDS011;61975;48.660;10.164;2022-10-16T12:43:36;5.13;;;2.40;;
73675;SDS011;61975;48.660;10.164;2022-10-16T12:48:35;4.00;;;2.15;;
73675;SDS011;61975;48.660;10.164;2022-10-16T12:51:09;4.05;;;2.10;;
73675;SDS011;61975;48.660;10.164;2022-10-16T12:53:46;4.13;;;1.80;;
73675;SDS011;61975;48.660;10.164;2022-10-16T12:56:25;5.25;;;2.20;;
73675;SDS011;61975;48.660;10.164;2022-10-16T12:59:28;7.83;;;2.17;;
73675;SDS011;61975;48.660;10.164;2022-10-16T13:12:37;3.97;;;1.60;;
73675;SDS011;61975;48.660;10.164;2022-10-16T13:18:05;5.55;;;1.50;;
73675;SDS011;61975;48.660;10.164;2022-10-16T13:23:23;3.08;;;1.42;;
73675;SDS011;61975;48.660;10.164;2022-10-16T13:25:59;3.90;;;1.53;;
73675;SDS011;61975;48.660;10.164;2022-10-16T13:28:46;3.28;;;1.58;;
73675;SDS011;61975;48.660;10.164;2022-10-16T13:31:20;4.23;;;1.60;;
73675;SDS011;61975;48.660;10.164;2022-10-16T13:33:52;5.05;;;1.42;;
73675;SDS011;61975;48.660;10.164;2022-10-16T13:36:21;3.95;;;1.35;;
73675;SDS011;61975;48.660;10.164;2022-10-16T13:39:09;3.20;;;1.40;;
73675;SDS011;61975;48.660;10.164;2022-10-16T13:41:37;4.68;;;1.60;;
73675;SDS011;61975;48.660;10.164;2022-10-16T13:44:03;3.80;;;1.53;;
73675;SDS011;61975;48.660;10.164;2022-10-16T13:46:30;3.22;;;1.60;;
73675;SDS011;61975;48.660;10.164;2022-10-16T13:49:03;4.60;;;1.52;;
73675;SDS011;61975;48.660;10.164;2022-10-16T13:51:30;4.88;;;1.80;;
73675;SDS011;61975;48.660;10.164;2022-10-16T13:53:57;3.57;;;1.37;;
73675;SDS011;61975;48.660;10.164;2022-10-16T13:56:27;3.83;;;1.40;;
73675;SDS011;61975;48.660;10.164;2022-10-16T13:59:02;4.60;;;1.42;;
73675;SDS011;61975;48.660;10.164;2022-10-16T14:01:40;3.55;;;1.50;;
73675;SDS011;61975;48.660;10.164;2022-10-16T14:04:09;4.95;;;1.55;;
73675;SDS011;61975;48.660;10.164;2022-10-16T14:06:36;3.30;;;1.70;;
73675;SDS011;61975;48.660;10.164;2022-10-16T14:09:08;7.85;;;1.88;;
73675;SDS011;61975;48.660;10.164;2022-10-16T14:11:46;3.67;;;1.80;;
73675;SDS011;61975;48.660;10.164;2022-10-16T14:14:16;4.70;;;1.70;;
73675;SDS011;61975;48.660;10.164;2022-10-16T14:16:42;4.22;;;1.80;;
73675;SDS011;61975;48.660;10.164;2022-10-16T14:19:17;6.23;;;1.60;;
73675;SDS011;61975;48.660;10.164;2022-10-16T14:21:47;5.28;;;1.75;;
73675;SDS011;61975;48.660;10.164;2022-10-16T14:24:14;2.80;;;1.60;;
73675;SDS011;61975;48.660;10.164;2022-10-16T14:30:01;4.50;;;1.70;;
73675;SDS011;61975;48.660;10.164;2022-10-16T14:32:41;3.00;;;1.53;;
73675;SDS011;61975;48.660;10.164;2022-10-16T14:37:56;5.88;;;1.60;;
73675;SDS011;61975;48.660;10.164;2022-10-16T14:40:28;3.97;;;1.80;;
73675;SDS011;61975;48.660;10.164;2022-10-16T14:42:55;3.05;;;1.60;;
73675;SDS011;61975;48.660;10.164;2022-10-16T14:45:22;6.67;;;1.90;;
73675;SDS011;61975;48.660;10.164;2022-10-16T14:47:58;4.88;;;1.75;;
73675;SDS011;61975;48.660;10.164;2022-10-16T14:50:25;4.07;;;1.83;;
73675;SDS011;61975;48.660;10.164;2022-10-16T14:52:50;4.82;;;1.70;;
73675;SDS011;61975;48.660;10.164;2022-10-16T14:55:16;4.57;;;1.83;;
73675;SDS011;61975;48.660;10.164;2022-10-16T14:57:43;3.78;;;1.80;;
73675;SDS011;61975;48.660;10.164;2022-10-16T15:00:13;3.93;;;1.70;;
73675;SDS011;61975;48.660;10.164;2022-10-16T15:02:45;4.18;;;1.70;;
73675;SDS011;61975;48.660;10.164;2022-10-16T15:05:13;3.85;;;1.60;;
73675;SDS011;61975;48.660;10.164;2022-10-16T15:07:40;3.78;;;1.60;;
73675;SDS011;61975;48.660;10.164;2022-10-16T15:10:06;3.15;;;1.73;;
73675;SDS011;61975;48.660;10.164;2022-10-16T15:12:32;3.17;;;1.70;;
73675;SDS011;61975;48.660;10.164;2022-10-16T15:14:57;3.30;;;1.80;;
73675;SDS011;61975;48.660;10.164;2022-10-16T15:17:23;3.17;;;1.60;;
73675;SDS011;61975;48.660;10.164;2022-10-16T15:19:51;6.53;;;1.70;;
73675;SDS011;61975;48.660;10.164;2022-10-16T15:22:16;3.17;;;1.80;;
73675;SDS011;61975;48.660;10.164;2022-10-16T15:24:42;3.67;;;1.70;;
73675;SDS011;61975;48.660;10.164;2022-10-16T15:27:08;3.37;;;1.80;;
73675;SDS011;61975;48.660;10.164;2022-10-16T15:29:33;4.70;;;1.60;;
73675;SDS011;61975;48.660;10.164;2022-10-16T15:31:59;4.93;;;1.70;;
73675;SDS011;61975;48.660;10.164;2022-10-16T15:34:24;4.67;;;1.90;;
73675;SDS011;61975;48.660;10.164;2022-10-16T15:36:50;3.50;;;1.57;;
73675;SDS011;61975;48.660;10.164;2022-10-16T15:39:16;6.73;;;1.83;;
73675;SDS011;61975;48.660;10.164;2022-10-16T15:41:44;4.72;;;1.80;;
73675;SDS011;61975;48.660;10.164;2022-10-16T15:44:16;3.97;;;1.73;;
73675;SDS011;61975;48.660;10.164;2022-10-16T15:46:42;3.58;;;1.70;;
73675;SDS011;61975;48.660;10.164;2022-10-16T15:49:07;3.50;;;1.90;;
73675;SDS011;61975;48.660;10.164;2022-10-16T15:51:35;4.45;;;1.92;;
73675;SDS011;61975;48.660;10.164;2022-10-16T15:54:03;4.38;;;1.98;;
73675;SDS011;61975;48.660;10.164;2022-10-16T15:56:31;5.10;;;2.55;;
73675;SDS011;61975;48.660;10.164;2022-10-16T15:58:58;5.88;;;3.20;;
73675;SDS011;61975;48.660;10.164;2022-10-16T16:01:27;5.90;;;2.50;;
73675;SDS011;61975;48.660;10.164;2022-10-16T16:03:55;3.95;;;2.25;;
73675;SDS011;61975;48.660;10.164;2022-10-16T16:06:21;6.63;;;3.20;;
73675;SDS011;61975;48.660;10.164;2022-10-16T16:08:48;19.90;;;10.50;;
73675;SDS011;61975;48.660;10.164;2022-10-16T16:11:15;10.60;;;7.15;;
73675;SDS011;61975;48.660;10.164;2022-10-16T16:13:41;10.32;;;6.18;;
73675;SDS011;61975;48.660;10.164;2022-10-16T16:16:08;20.50;;;14.43;;
73675;SDS011;61975;48.660;10.164;2022-10-16T16:18:34;9.90;;;7.35;;
73675;SDS011;61975;48.660;10.164;2022-10-16T16:21:00;9.45;;;6.00;;
73675;SDS011;61975;48.660;10.164;2022-10-16T16:23:26;8.37;;;4.57;;
73675;SDS011;61975;48.660;10.164;2022-10-16T16:28:40;5.03;;;2.97;;
73675;SDS011;61975;48.660;10.164;2022-10-16T16:31:07;6.82;;;3.10;;
73675;SDS011;61975;48.660;10.164;2022-10-16T16:33:33;8.57;;;5.32;;
73675;SDS011;61975;48.660;10.164;2022-10-16T16:35:59;9.77;;;5.53;;
73675;SDS011;61975;48.660;10.164;2022-10-16T16:38:26;86.68;;;50.10;;
73675;SDS011;61975;48.660;10.164;2022-10-16T16:40:52;94.68;;;53.25;;
73675;SDS011;61975;48.660;10.164;2022-10-16T16:43:18;23.63;;;14.43;;
73675;SDS011;61975;48.660;10.164;2022-10-16T16:45:44;17.95;;;10.35;;
73675;SDS011;61975;48.660;10.164;2022-10-16T16:48:09;11.50;;;5.77;;
73675;SDS011;61975;48.660;10.164;2022-10-16T16:50:35;7.80;;;5.13;;
73675;SDS011;61975;48.660;10.164;2022-10-16T16:53:01;8.13;;;4.90;;